Time;durP1;ratioP1;P1;durP2;ratioP2;P2;SDS_P1;SDS_P2;PMS_P1;PMS_P2;Temp;Humidity;BMP_temperature;BMP_pressure;BME280_temperature;BME280_humidity;BME280_pressure;Samples;Min_cycle;Max_cycle;Signal;HPM_P1;HPM_P2
2021/11/05 00:01:44;;;;;;;25.90;17.27;;;8.20;99.90;;;;;;5025197;28;20635;-74
2021/11/05 00:04:12;;;;;;;26.87;17.80;;;8.20;99.90;;;;;;5026388;28;20243;-74
2021/11/05 00:06:40;;;;;;;24.73;16.53;;;8.20;99.90;;;;;;5024682;28;20206;-74
2021/11/05 00:09:07;;;;;;;27.00;16.10;;;8.20;99.90;;;;;;5026498;28;20204;-74
2021/11/05 00:11:34;;;;;;;25.57;16.80;;;8.20;99.90;;;;;;5025990;28;20192;-74
2021/11/05 00:14:01;;;;;;;25.63;17.20;;;8.20;99.90;;;;;;5029527;28;20208;-74
2021/11/05 00:16:28;;;;;;;26.00;16.60;;;8.20;99.90;;;;;;5019075;28;20209;-74
2021/11/05 00:18:55;;;;;;;26.87;16.73;;;8.20;99.90;;;;;;5026534;28;20207;-73
2021/11/05 00:21:22;;;;;;;24.40;16.07;;;8.20;99.90;;;;;;5030152;28;20549;-74
2021/11/05 00:23:50;;;;;;;24.20;16.43;;;8.20;99.90;;;;;;5029946;28;20280;-74
2021/11/05 00:26:17;;;;;;;26.73;17.50;;;8.20;99.90;;;;;;5023512;28;20212;-74
2021/11/05 00:28:44;;;;;;;23.90;16.27;;;8.20;99.90;;;;;;5027554;28;20196;-74
2021/11/05 00:31:11;;;;;;;27.17;16.37;;;8.20;99.90;;;;;;5031226;28;20207;-74
2021/11/05 00:33:38;;;;;;;23.47;17.07;;;8.20;99.90;;;;;;5026383;28;20200;-74
2021/11/05 00:36:07;;;;;;;25.23;17.03;;;8.20;99.90;;;;;;5031004;28;20226;-74
2021/11/05 00:38:34;;;;;;;25.80;17.00;;;8.20;99.90;;;;;;5024933;28;20230;-74
2021/11/05 00:41:02;;;;;;;26.77;16.67;;;8.20;99.90;;;;;;5031345;28;20681;-74
2021/11/05 00:43:29;;;;;;;23.83;15.30;;;8.20;99.90;;;;;;5029520;28;20203;-74
2021/11/05 00:45:56;;;;;;;26.00;16.90;;;8.30;99.90;;;;;;5030712;28;20666;-74
2021/11/05 00:48:22;;;;;;;25.27;15.97;;;8.20;99.90;;;;;;5030739;28;20195;-74
2021/11/05 00:50:49;;;;;;;26.20;16.63;;;8.20;99.90;;;;;;5031211;28;20283;-74
2021/11/05 00:53:16;;;;;;;25.73;16.07;;;8.20;99.90;;;;;;5014997;28;20546;-74
2021/11/05 00:55:43;;;;;;;26.40;17.47;;;8.20;99.90;;;;;;5025698;28;20615;-74
2021/11/05 00:58:12;;;;;;;25.13;16.73;;;8.10;99.90;;;;;;5015857;28;20201;-74
2021/11/05 01:00:39;;;;;;;25.03;16.10;;;8.20;99.90;;;;;;5024479;28;20242;-74
2021/11/05 01:03:06;;;;;;;27.97;17.40;;;8.10;99.90;;;;;;5030227;28;20204;-74
2021/11/05 01:05:33;;;;;;;26.53;17.77;;;8.10;99.90;;;;;;5030588;28;20688;-74
2021/11/05 01:08:01;;;;;;;27.63;18.60;;;8.20;99.90;;;;;;5019561;28;20743;-74
2021/11/05 01:10:28;;;;;;;23.50;15.50;;;8.10;99.90;;;;;;5027793;28;20650;-74
2021/11/05 01:12:55;;;;;;;25.70;16.73;;;8.10;99.90;;;;;;5029168;28;20559;-74
2021/11/05 01:15:24;;;;;;;26.53;16.73;;;8.20;99.90;;;;;;5030279;28;20200;-74
2021/11/05 01:17:50;;;;;;;25.83;16.63;;;8.10;99.90;;;;;;5028071;28;20204;-74
2021/11/05 01:20:19;;;;;;;24.33;16.83;;;8.10;99.90;;;;;;5029933;28;20207;-74
2021/11/05 01:22:47;;;;;;;25.43;16.77;;;8.10;99.90;;;;;;5028284;28;20227;-74
2021/11/05 01:25:14;;;;;;;24.00;16.27;;;8.10;99.90;;;;;;5030048;28;20208;-74
2021/11/05 01:27:41;;;;;;;25.37;16.37;;;8.10;99.90;;;;;;5018323;28;20253;-74
2021/11/05 01:30:08;;;;;;;25.13;15.77;;;8.10;99.90;;;;;;5029729;28;20206;-74
2021/11/05 01:32:38;;;;;;;24.47;15.63;;;8.10;99.90;;;;;;5020729;28;20200;-74
2021/11/05 01:35:06;;;;;;;25.83;16.50;;;8.10;99.90;;;;;;5024482;28;20196;-74
2021/11/05 01:37:34;;;;;;;24.97;16.20;;;8.10;99.90;;;;;;5028690;28;20212;-74
2021/11/05 01:40:01;;;;;;;28.87;17.33;;;8.20;99.90;;;;;;5030193;28;20203;-74
2021/11/05 01:42:27;;;;;;;27.20;16.57;;;8.10;99.90;;;;;;5022570;28;20231;-74
2021/11/05 01:44:55;;;;;;;25.90;16.10;;;8.20;99.90;;;;;;5024716;28;20196;-74
2021/11/05 01:47:22;;;;;;;26.07;16.70;;;8.20;99.90;;;;;;5029788;28;20211;-74
2021/11/05 01:49:50;;;;;;;29.90;17.33;;;8.20;99.90;;;;;;5029672;28;20199;-74
2021/11/05 01:52:17;;;;;;;26.50;16.70;;;8.20;99.90;;;;;;5029612;28;20206;-74
2021/11/05 01:54:45;;;;;;;25.23;15.80;;;8.20;99.90;;;;;;5029433;28;20196;-74
2021/11/05 01:57:13;;;;;;;25.27;15.60;;;8.20;99.90;;;;;;5029406;28;20195;-74
2021/11/05 01:59:40;;;;;;;23.67;15.87;;;8.20;99.90;;;;;;5029428;28;20210;-74
2021/11/05 02:02:09;;;;;;;25.20;16.20;;;8.20;99.90;;;;;;5029977;28;20254;-74
2021/11/05 02:04:36;;;;;;;24.47;15.60;;;8.10;99.90;;;;;;5028550;28;20208;-74
2021/11/05 02:07:05;;;;;;;23.13;15.00;;;8.20;99.90;;;;;;5029634;28;20215;-74
2021/11/05 02:09:33;;;;;;;27.23;17.07;;;8.10;99.90;;;;;;5016971;28;20207;-74
2021/11/05 02:12:02;;;;;;;25.07;16.03;;;8.10;99.90;;;;;;5029851;28;20287;-74
2021/11/05 02:14:30;;;;;;;24.13;15.03;;;8.10;99.90;;;;;;5012149;28;20209;-74
2021/11/05 02:16:58;;;;;;;22.13;14.50;;;8.20;99.90;;;;;;5028802;28;20203;-74
2021/11/05 02:19:27;;;;;;;24.07;14.67;;;8.10;99.90;;;;;;5029017;28;20207;-74
2021/11/05 02:21:57;;;;;;;22.70;14.83;;;8.10;99.90;;;;;;5029259;28;20844;-74
2021/11/05 02:24:25;;;;;;;22.70;14.53;;;8.10;99.90;;;;;;5028603;28;20202;-74
2021/11/05 02:26:53;;;;;;;25.73;14.73;;;8.10;99.90;;;;;;5029433;28;20204;-74
2021/11/05 02:29:21;;;;;;;24.23;14.73;;;8.10;99.90;;;;;;5025260;28;20231;-74
2021/11/05 02:31:49;;;;;;;22.17;14.60;;;8.10;99.90;;;;;;5030012;28;20790;-74
2021/11/05 02:34:16;;;;;;;24.23;15.90;;;8.10;99.90;;;;;;5029602;28;20196;-74
2021/11/05 02:36:43;;;;;;;22.23;14.47;;;8.10;99.90;;;;;;5029185;28;20650;-74
2021/11/05 02:39:11;;;;;;;24.40;14.77;;;8.10;99.90;;;;;;5027077;28;20204;-74
2021/11/05 02:41:41;;;;;;;26.13;15.80;;;8.10;99.90;;;;;;5028365;28;20226;-74
2021/11/05 02:44:08;;;;;;;23.33;15.43;;;8.20;99.90;;;;;;5027666;28;20616;-74
2021/11/05 02:46:35;;;;;;;24.80;15.63;;;8.10;99.90;;;;;;5028258;28;20642;-74
2021/11/05 02:49:04;;;;;;;26.50;16.00;;;8.10;99.90;;;;;;5020730;28;20631;-74
2021/11/05 02:51:32;;;;;;;25.63;15.47;;;8.10;99.90;;;;;;5026295;28;20208;-74
2021/11/05 02:54:02;;;;;;;25.10;16.37;;;8.10;99.90;;;;;;5020940;28;20196;-74
2021/11/05 02:56:31;;;;;;;25.33;16.07;;;8.10;99.90;;;;;;5024501;28;20206;-74
2021/11/05 02:58:58;;;;;;;25.47;16.60;;;8.10;99.90;;;;;;5027895;28;20204;-74
2021/11/05 03:01:26;;;;;;;26.53;16.37;;;8.10;99.90;;;;;;5028001;28;20220;-73
2021/11/05 03:03:54;;;;;;;27.50;17.33;;;8.10;99.90;;;;;;5029073;28;20209;-74
2021/11/05 03:06:21;;;;;;;28.40;17.43;;;8.10;99.90;;;;;;5028774;28;20214;-73
2021/11/05 03:08:48;;;;;;;28.87;16.60;;;8.10;99.90;;;;;;5028751;28;20199;-73
2021/11/05 03:11:15;;;;;;;29.60;17.40;;;8.10;99.90;;;;;;5028236;28;20691;-73
2021/11/05 03:13:44;;;;;;;28.57;17.50;;;8.10;99.90;;;;;;5028752;28;20217;-74
2021/11/05 03:16:12;;;;;;;31.73;17.97;;;8.10;99.90;;;;;;5027526;28;20199;-73
2021/11/05 03:18:41;;;;;;;25.20;15.83;;;8.10;99.90;;;;;;5028147;28;20192;-73
2021/11/05 03:21:09;;;;;;;26.37;16.50;;;8.10;99.90;;;;;;5028088;28;20215;-73
2021/11/05 03:23:36;;;;;;;26.53;15.63;;;8.10;99.90;;;;;;5028049;28;20862;-74
2021/11/05 03:26:04;;;;;;;24.03;15.43;;;8.10;99.90;;;;;;5027828;28;20204;-74
2021/11/05 03:28:31;;;;;;;24.20;15.13;;;8.10;99.90;;;;;;5028080;28;20202;-74
2021/11/05 03:31:00;;;;;;;27.53;16.70;;;8.00;99.90;;;;;;5027397;28;20488;-73
2021/11/05 03:33:27;;;;;;;27.97;17.20;;;8.00;99.90;;;;;;5028165;28;20206;-74
2021/11/05 03:35:54;;;;;;;28.27;18.10;;;8.00;99.90;;;;;;5027755;28;20203;-73
2021/11/05 03:38:21;;;;;;;32.20;19.90;;;8.00;99.90;;;;;;5024664;28;20204;-73
2021/11/05 03:40:48;;;;;;;32.10;19.97;;;8.00;99.90;;;;;;5027840;28;20219;-74
2021/11/05 03:43:15;;;;;;;33.77;20.73;;;8.00;99.90;;;;;;5027325;28;20217;-73
2021/11/05 03:45:42;;;;;;;34.80;20.70;;;8.00;99.90;;;;;;5029144;28;20204;-73
2021/11/05 03:48:10;;;;;;;36.33;21.13;;;8.00;99.90;;;;;;5027354;28;20538;-74
2021/11/05 03:50:37;;;;;;;32.93;20.43;;;7.90;99.90;;;;;;5029029;28;20218;-73
2021/11/05 03:53:04;;;;;;;32.80;19.33;;;7.90;99.90;;;;;;5029091;28;20195;-73
2021/11/05 03:55:31;;;;;;;34.67;20.80;;;7.90;99.90;;;;;;5027353;28;20200;-73
2021/11/05 03:57:58;;;;;;;35.03;21.67;;;7.90;99.90;;;;;;5031637;28;20218;-74
2021/11/05 04:00:25;;;;;;;33.20;20.37;;;7.80;99.90;;;;;;5026693;28;20986;-73
2021/11/05 04:02:52;;;;;;;35.10;20.77;;;7.80;99.90;;;;;;5032307;28;20223;-73
2021/11/05 04:05:20;;;;;;;33.93;19.70;;;7.80;99.90;;;;;;5024915;28;20204;-73
2021/11/05 04:07:48;;;;;;;32.33;19.73;;;7.80;99.90;;;;;;5031399;28;20196;-74
2021/11/05 04:10:15;;;;;;;34.67;20.40;;;7.80;99.90;;;;;;5031260;28;20211;-73
2021/11/05 04:12:42;;;;;;;34.60;19.43;;;7.80;99.90;;;;;;5031441;28;20196;-74
2021/11/05 04:15:09;;;;;;;35.57;20.87;;;7.80;99.90;;;;;;5031084;28;20206;-73
2021/11/05 04:17:38;;;;;;;34.30;20.60;;;7.80;99.90;;;;;;5031482;28;20208;-73
2021/11/05 04:20:06;;;;;;;30.93;18.53;;;7.80;99.90;;;;;;5031304;28;20816;-73
2021/11/05 04:22:34;;;;;;;32.80;20.27;;;7.80;99.90;;;;;;5031051;28;20230;-73
2021/11/05 04:25:01;;;;;;;35.70;21.23;;;7.80;99.90;;;;;;5026662;28;20562;-73
2021/11/05 04:27:28;;;;;;;37.33;21.20;;;7.80;99.90;;;;;;5031506;28;20645;-73
2021/11/05 04:29:55;;;;;;;32.10;18.60;;;7.80;99.90;;;;;;5031538;28;20776;-73
2021/11/05 04:32:22;;;;;;;32.53;19.07;;;7.80;99.90;;;;;;5031310;28;20199;-73
2021/11/05 04:34:49;;;;;;;34.60;19.37;;;7.80;99.90;;;;;;5017106;28;20196;-73
2021/11/05 04:37:16;;;;;;;33.07;18.63;;;7.80;99.90;;;;;;5028175;28;20212;-73
2021/11/05 04:39:44;;;;;;;31.53;18.50;;;7.80;99.90;;;;;;5019875;28;20201;-73
2021/11/05 04:42:11;;;;;;;43.70;19.10;;;7.80;99.90;;;;;;5018123;28;20262;-73
2021/11/05 04:44:38;;;;;;;31.93;18.53;;;7.80;99.90;;;;;;5016735;28;20200;-73
2021/11/05 04:47:05;;;;;;;36.43;19.23;;;7.70;99.90;;;;;;5011799;28;20685;-73
2021/11/05 04:49:32;;;;;;;29.97;17.43;;;7.80;99.90;;;;;;5017933;28;20207;-74
2021/11/05 04:51:59;;;;;;;32.73;18.47;;;7.80;99.90;;;;;;5011405;28;20543;-73
2021/11/05 04:54:26;;;;;;;30.57;18.43;;;7.70;99.90;;;;;;5023264;28;20200;-74
2021/11/05 04:56:54;;;;;;;30.87;17.80;;;7.70;99.90;;;;;;5030704;28;20214;-73
2021/11/05 04:59:21;;;;;;;31.13;18.00;;;7.70;99.90;;;;;;5030780;28;20561;-73
2021/11/05 05:01:48;;;;;;;30.03;17.07;;;7.70;99.90;;;;;;5031099;28;20207;-76
2021/11/05 05:04:16;;;;;;;28.67;16.77;;;7.80;99.90;;;;;;5019731;28;20723;-74
2021/11/05 05:06:42;;;;;;;27.27;14.87;;;7.80;99.90;;;;;;5010912;28;20195;-73
2021/11/05 05:09:11;;;;;;;26.27;15.07;;;7.80;99.90;;;;;;5022789;28;20227;-73
2021/11/05 05:11:38;;;;;;;28.03;16.03;;;7.80;99.90;;;;;;5031095;28;20726;-73
2021/11/05 05:14:06;;;;;;;26.63;15.17;;;7.80;99.90;;;;;;5020419;28;20287;-73
2021/11/05 05:16:33;;;;;;;25.33;15.00;;;7.80;99.90;;;;;;5014108;28;20579;-74
2021/11/05 05:19:00;;;;;;;30.97;16.20;;;7.80;99.90;;;;;;5028312;28;20199;-73
2021/11/05 05:21:28;;;;;;;29.10;16.57;;;7.80;99.90;;;;;;5029983;28;20650;-74
2021/11/05 05:23:54;;;;;;;27.33;16.80;;;7.80;99.90;;;;;;5029411;28;20227;-74
2021/11/05 05:26:22;;;;;;;28.00;16.53;;;7.80;99.90;;;;;;5029731;28;20207;-73
2021/11/05 05:28:49;;;;;;;31.00;17.87;;;7.70;99.90;;;;;;5078211;27;20207;-74
2021/11/05 05:31:17;;;;;;;30.87;18.00;;;7.70;99.90;;;;;;5060626;27;20256;-73
2021/11/05 05:33:44;;;;;;;31.73;18.27;;;7.70;99.90;;;;;;5029800;28;20211;-74
2021/11/05 05:36:11;;;;;;;29.23;18.07;;;7.70;99.90;;;;;;5029861;28;20215;-74
2021/11/05 05:38:38;;;;;;;32.07;17.63;;;7.70;99.90;;;;;;5030040;28;20676;-73
2021/11/05 05:41:06;;;;;;;30.10;17.57;;;7.70;99.90;;;;;;5030085;28;20216;-74
2021/11/05 05:43:33;;;;;;;35.60;20.17;;;7.70;99.90;;;;;;5026596;28;20219;-74
2021/11/05 05:46:00;;;;;;;34.13;18.90;;;7.80;99.90;;;;;;5029519;28;20307;-74
2021/11/05 05:48:28;;;;;;;32.60;18.67;;;7.80;99.90;;;;;;5024676;28;20218;-74
2021/11/05 05:50:55;;;;;;;30.83;18.23;;;7.80;99.90;;;;;;5020585;28;20214;-74
2021/11/05 05:53:22;;;;;;;32.47;18.03;;;7.80;99.90;;;;;;5028894;28;20188;-74
2021/11/05 05:55:49;;;;;;;32.20;18.73;;;7.80;99.90;;;;;;5029684;28;20219;-74
2021/11/05 05:58:16;;;;;;;34.27;17.97;;;7.80;99.90;;;;;;5024866;28;20197;-73
2021/11/05 06:00:43;;;;;;;30.93;17.63;;;7.80;99.90;;;;;;5019545;28;20567;-74
2021/11/05 06:03:10;;;;;;;29.40;17.90;;;7.80;99.90;;;;;;5028789;28;20525;-74
2021/11/05 06:05:39;;;;;;;31.13;17.90;;;7.80;99.90;;;;;;5030043;28;20563;-73
2021/11/05 06:08:06;;;;;;;28.67;16.70;;;7.80;99.90;;;;;;5026483;28;20239;-74
2021/11/05 06:10:34;;;;;;;30.30;18.13;;;7.80;99.90;;;;;;5010131;28;20655;-75
2021/11/05 06:13:01;;;;;;;30.03;16.63;;;7.80;99.90;;;;;;5012325;28;20197;-76
2021/11/05 06:15:28;;;;;;;29.30;16.63;;;7.80;99.90;;;;;;5029829;28;20563;-76
2021/11/05 06:17:55;;;;;;;33.60;18.23;;;7.80;99.90;;;;;;5025918;28;20210;-77
2021/11/05 06:20:22;;;;;;;31.90;18.70;;;7.80;99.90;;;;;;5009660;28;20250;-76
2021/11/05 06:22:54;;;;;;;33.00;18.20;;;7.80;99.90;;;;;;5012129;28;20225;-76
2021/11/05 06:25:21;;;;;;;38.47;18.37;;;7.90;99.90;;;;;;5029877;28;20215;-74
2021/11/05 06:27:48;;;;;;;30.10;17.83;;;7.90;99.90;;;;;;5083196;27;20196;-74
2021/11/05 06:30:15;;;;;;;30.23;16.03;;;7.90;99.90;;;;;;5010016;28;20231;-74
2021/11/05 06:32:42;;;;;;;31.23;16.70;;;8.00;99.90;;;;;;5030183;28;20208;-73
2021/11/05 06:35:11;;;;;;;27.80;15.83;;;7.90;99.90;;;;;;5029261;28;20211;-74
2021/11/05 06:37:38;;;;;;;31.60;17.40;;;7.90;99.90;;;;;;5029452;28;20685;-74
2021/11/05 06:40:10;;;;;;;31.37;17.13;;;7.90;99.90;;;;;;5028393;28;20219;-74
2021/11/05 06:42:37;;;;;;;29.13;16.03;;;7.80;99.90;;;;;;5040236;27;20667;-72
2021/11/05 06:45:05;;;;;;;30.10;16.97;;;7.90;99.90;;;;;;5038101;28;20575;-72
2021/11/05 06:47:33;;;;;;;34.17;18.57;;;7.90;99.90;;;;;;5043602;27;20303;-71
2021/11/05 06:50:00;;;;;;;30.73;17.20;;;8.00;99.90;;;;;;5037509;28;20260;-71
2021/11/05 06:52:27;;;;;;;30.40;17.40;;;8.00;99.90;;;;;;5091845;27;20199;-71
2021/11/05 06:54:54;;;;;;;32.10;18.40;;;8.00;99.90;;;;;;5108665;27;20208;-71
2021/11/05 06:57:22;;;;;;;29.27;16.80;;;8.00;99.90;;;;;;5031391;28;20206;-71
2021/11/05 06:59:50;;;;;;;29.13;16.93;;;8.00;99.90;;;;;;5037609;28;20290;-71
2021/11/05 07:02:16;;;;;;;29.57;17.37;;;8.00;99.90;;;;;;5038666;27;20211;-71
2021/11/05 07:04:43;;;;;;;29.83;17.37;;;8.00;99.90;;;;;;5121107;27;20222;-71
2021/11/05 07:07:10;;;;;;;32.10;17.17;;;8.00;99.90;;;;;;5027681;28;20204;-71
2021/11/05 07:09:37;;;;;;;29.90;17.00;;;8.00;99.90;;;;;;5028627;28;20821;-71
2021/11/05 07:12:05;;;;;;;30.57;17.57;;;8.10;99.90;;;;;;5029406;28;20269;-71
2021/11/05 07:14:33;;;;;;;33.27;17.50;;;8.10;99.90;;;;;;5029260;28;20681;-71
2021/11/05 07:17:00;;;;;;;33.63;17.87;;;8.10;99.90;;;;;;5026434;28;20210;-71
2021/11/05 07:19:28;;;;;;;31.13;17.00;;;8.10;99.90;;;;;;5029065;28;20214;-71
2021/11/05 07:22:01;;;;;;;32.20;17.63;;;8.20;99.90;;;;;;5030016;28;20212;-71
2021/11/05 07:24:28;;;;;;;33.37;17.67;;;8.20;99.90;;;;;;5017338;28;20223;-71
2021/11/05 07:26:56;;;;;;;30.47;17.17;;;8.30;99.90;;;;;;5022455;28;20221;-71
2021/11/05 07:29:25;;;;;;;31.13;16.63;;;8.30;99.90;;;;;;5027744;28;20208;-71
2021/11/05 07:31:55;;;;;;;30.60;16.37;;;8.40;99.90;;;;;;5028034;28;20294;-71
2021/11/05 07:34:22;;;;;;;30.13;15.43;;;8.40;99.90;;;;;;5028436;28;20211;-71
2021/11/05 07:36:49;;;;;;;29.67;16.00;;;8.40;99.90;;;;;;5027384;28;20211;-71
2021/11/05 07:39:17;;;;;;;28.40;15.77;;;8.40;99.90;;;;;;5036522;27;20209;-71
2021/11/05 07:41:44;;;;;;;25.73;15.93;;;8.40;99.90;;;;;;5066581;27;20211;-71
2021/11/05 07:44:10;;;;;;;28.47;15.17;;;8.40;99.90;;;;;;5028369;28;20875;-71
2021/11/05 07:46:37;;;;;;;29.87;16.40;;;8.40;99.90;;;;;;5027294;28;20218;-71
2021/11/05 07:49:06;;;;;;;33.07;15.60;;;8.40;99.90;;;;;;5027069;28;20629;-71
2021/11/05 07:51:32;;;;;;;27.43;15.23;;;8.40;99.90;;;;;;5028552;28;21029;-71
2021/11/05 07:54:00;;;;;;;24.97;14.87;;;8.40;99.90;;;;;;5016173;28;20216;-72
2021/11/05 07:56:26;;;;;;;27.77;15.53;;;8.30;99.90;;;;;;5056565;27;20207;-72
2021/11/05 07:58:53;;;;;;;27.93;16.40;;;8.30;99.90;;;;;;5029178;28;20218;-71
2021/11/05 08:01:22;;;;;;;29.30;16.63;;;8.30;99.90;;;;;;5031932;28;20207;-71
2021/11/05 08:03:49;;;;;;;26.20;16.03;;;8.30;99.90;;;;;;5048344;28;20238;-71
2021/11/05 08:06:19;;;;;;;26.80;15.77;;;8.30;99.90;;;;;;5034030;28;20440;-71
2021/11/05 08:08:46;;;;;;;29.20;14.50;;;8.30;99.90;;;;;;5028423;28;20204;-71
2021/11/05 08:11:13;;;;;;;27.03;15.37;;;8.40;99.90;;;;;;5033627;28;20219;-71
2021/11/05 08:13:40;;;;;;;28.93;15.83;;;8.40;99.90;;;;;;5028863;28;20268;-71
2021/11/05 08:16:07;;;;;;;26.60;14.63;;;8.40;99.90;;;;;;5027274;28;20743;-71
2021/11/05 08:18:35;;;;;;;25.23;13.77;;;8.40;99.90;;;;;;5023574;28;20211;-71
2021/11/05 08:21:02;;;;;;;26.77;15.23;;;8.50;99.90;;;;;;5028815;28;20545;-71
2021/11/05 08:23:31;;;;;;;28.23;16.13;;;8.60;99.90;;;;;;5021617;28;20223;-71
2021/11/05 08:25:58;;;;;;;28.10;15.63;;;8.60;99.90;;;;;;5042364;27;20203;-71
2021/11/05 08:28:25;;;;;;;28.80;15.77;;;8.60;99.90;;;;;;5023993;28;20214;-71
2021/11/05 08:30:53;;;;;;;26.27;15.53;;;8.60;99.90;;;;;;5015189;28;20228;-71
2021/11/05 08:33:21;;;;;;;28.77;17.17;;;8.60;99.90;;;;;;5026083;28;20199;-71
2021/11/05 08:35:51;;;;;;;28.90;16.53;;;8.60;99.90;;;;;;5025589;28;20269;-71
2021/11/05 08:38:19;;;;;;;29.77;16.53;;;8.70;99.90;;;;;;5021915;28;20766;-71
2021/11/05 08:40:51;;;;;;;27.10;15.97;;;8.70;99.90;;;;;;5071787;27;20227;-71
2021/11/05 08:43:21;;;;;;;30.10;15.57;;;8.80;99.90;;;;;;5028353;27;20768;-71
2021/11/05 08:45:48;;;;;;;29.67;16.30;;;8.90;99.90;;;;;;5060649;27;20199;-71
2021/11/05 08:48:15;;;;;;;27.33;16.23;;;8.90;99.90;;;;;;5038352;28;20599;-71
2021/11/05 08:50:43;;;;;;;26.47;16.07;;;8.90;99.90;;;;;;5034627;28;20208;-71
2021/11/05 08:53:10;;;;;;;27.60;15.30;;;9.00;99.90;;;;;;5030523;28;20202;-71
2021/11/05 08:55:38;;;;;;;28.13;14.97;;;8.90;99.90;;;;;;5052556;27;20827;-71
2021/11/05 08:58:07;;;;;;;28.33;14.20;;;8.90;99.90;;;;;;5093182;27;20295;-71
2021/11/05 09:00:35;;;;;;;26.30;14.83;;;9.00;99.90;;;;;;5079138;27;20211;-70
2021/11/05 09:03:02;;;;;;;23.30;13.30;;;9.00;99.90;;;;;;5024487;27;20974;-70
2021/11/05 09:05:30;;;;;;;24.60;14.17;;;8.90;99.90;;;;;;5023927;28;20204;-71
2021/11/05 09:07:57;;;;;;;25.20;13.20;;;9.00;99.90;;;;;;5029034;28;20207;-70
2021/11/05 09:10:25;;;;;;;23.97;13.83;;;9.00;99.90;;;;;;5028729;28;20679;-70
2021/11/05 09:12:52;;;;;;;21.63;12.33;;;9.00;99.90;;;;;;5030558;28;20242;-70
2021/11/05 09:15:22;;;;;;;22.50;12.33;;;9.10;99.90;;;;;;5030290;28;20204;-70
2021/11/05 09:17:51;;;;;;;21.43;10.80;;;9.10;99.90;;;;;;5029383;28;20573;-70
2021/11/05 09:20:18;;;;;;;22.10;11.50;;;9.10;99.90;;;;;;5030106;28;20208;-70
2021/11/05 09:22:46;;;;;;;21.57;11.73;;;9.30;99.90;;;;;;5030080;28;20200;-70
2021/11/05 09:25:13;;;;;;;21.07;11.53;;;9.30;99.90;;;;;;5029600;28;20219;-70
2021/11/05 09:27:40;;;;;;;22.37;11.47;;;9.40;99.90;;;;;;5030225;28;20226;-70
2021/11/05 09:30:10;;;;;;;22.13;12.30;;;9.60;99.90;;;;;;5031011;28;20680;-70
2021/11/05 09:32:39;;;;;;;22.07;11.00;;;9.60;99.90;;;;;;5030464;28;20216;-70
2021/11/05 09:35:07;;;;;;;20.50;10.57;;;9.90;99.90;;;;;;5030791;28;20202;-70
2021/11/05 09:37:35;;;;;;;20.40;10.93;;;10.00;99.90;;;;;;5029853;28;20214;-70
2021/11/05 09:40:03;;;;;;;17.27;9.23;;;10.30;99.90;;;;;;5030951;28;20665;-71
2021/11/05 09:42:31;;;;;;;17.23;8.50;;;10.20;99.90;;;;;;5030868;28;20681;-70
2021/11/05 09:44:59;;;;;;;17.77;9.43;;;10.20;99.90;;;;;;5030908;28;20585;-70
2021/11/05 09:47:27;;;;;;;15.30;8.17;;;10.10;99.90;;;;;;5029958;28;20218;-70
2021/11/05 09:49:56;;;;;;;13.87;7.80;;;10.10;99.90;;;;;;5030346;28;20219;-70
2021/11/05 09:52:22;;;;;;;13.60;7.23;;;10.50;99.90;;;;;;5030388;28;20658;-70
2021/11/05 09:54:50;;;;;;;12.20;6.80;;;10.70;99.90;;;;;;5030842;28;20744;-70
2021/11/05 09:57:17;;;;;;;12.83;6.47;;;10.70;99.90;;;;;;5029982;28;20638;-70
2021/11/05 09:59:44;;;;;;;12.97;6.43;;;11.00;99.90;;;;;;5030628;28;20208;-70
2021/11/05 10:02:12;;;;;;;11.60;6.50;;;10.80;99.90;;;;;;5030488;28;20658;-70
2021/11/05 10:04:38;;;;;;;11.97;6.57;;;10.80;99.90;;;;;;5030224;28;20562;-70
2021/11/05 10:07:09;;;;;;;11.73;6.83;;;10.90;99.90;;;;;;5015221;28;20203;-70
2021/11/05 10:09:37;;;;;;;13.73;8.13;;;10.80;99.90;;;;;;5022768;28;20196;-71
2021/11/05 10:12:14;;;;;;;11.90;7.37;;;10.90;99.90;;;;;;5026522;28;20573;-70
2021/11/05 10:14:43;;;;;;;13.33;7.60;;;10.80;99.90;;;;;;5030332;28;20199;-71
2021/11/05 10:17:12;;;;;;;16.17;8.73;;;10.70;99.90;;;;;;5022363;28;20207;-71
2021/11/05 10:19:55;;;;;;;15.30;8.30;;;10.60;99.90;;;;;;5026127;27;20562;-70
2021/11/05 10:22:49;;;;;;;14.20;7.30;;;10.60;99.90;;;;;;5119874;27;20559;-71
2021/11/05 10:25:23;;;;;;;17.33;8.77;;;10.50;99.90;;;;;;5030052;28;20227;-70
2021/11/05 10:28:04;;;;;;;14.70;8.70;;;10.50;99.90;;;;;;5081502;27;20638;-70
2021/11/05 10:30:34;;;;;;;16.70;9.60;;;10.50;99.90;;;;;;5010516;28;20571;-70
2021/11/05 10:33:02;;;;;;;15.40;8.40;;;10.70;99.90;;;;;;5016357;28;20204;-70
2021/11/05 10:35:30;;;;;;;18.40;8.77;;;10.80;99.90;;;;;;5029567;28;20200;-70
2021/11/05 10:38:03;;;;;;;15.23;9.17;;;10.80;99.90;;;;;;5029393;28;20573;-70
2021/11/05 10:40:37;;;;;;;16.00;8.80;;;10.90;99.90;;;;;;5028604;28;20692;-71
2021/11/05 10:43:05;;;;;;;14.23;8.23;;;10.90;99.90;;;;;;5075249;27;20206;-70
2021/11/05 10:45:32;;;;;;;17.83;10.33;;;10.90;99.90;;;;;;5093059;27;20238;-71
2021/11/05 10:48:09;;;;;;;17.00;8.50;;;10.90;99.90;;;;;;5065416;27;20551;-71
2021/11/05 10:50:39;;;;;;;13.60;7.47;;;10.80;99.90;;;;;;5026805;28;20237;-71
2021/11/05 10:53:10;;;;;;;16.27;8.13;;;10.80;99.90;;;;;;5029426;28;20199;-71
2021/11/05 10:55:43;;;;;;;15.50;8.37;;;10.70;99.90;;;;;;5028769;28;20817;-70
2021/11/05 10:58:19;;;;;;;15.47;8.80;;;10.60;99.90;;;;;;5029249;28;20207;-70
2021/11/05 11:00:47;;;;;;;15.83;7.80;;;10.70;99.90;;;;;;5027995;28;20203;-71
2021/11/05 11:03:17;;;;;;;15.17;8.10;;;10.70;99.90;;;;;;5047127;28;20567;-71
2021/11/05 11:05:45;;;;;;;17.23;8.00;;;10.60;99.90;;;;;;5029070;28;20222;-71
2021/11/05 11:08:22;;;;;;;14.23;7.97;;;10.50;99.90;;;;;;5025627;28;20291;-70
2021/11/05 11:10:52;;;;;;;14.03;8.00;;;10.30;99.90;;;;;;5027429;28;20286;-71
2021/11/05 11:13:31;;;;;;;16.70;8.37;;;10.30;99.90;;;;;;5029290;28;20212;-70
2021/11/05 11:15:58;;;;;;;13.30;7.50;;;10.40;99.90;;;;;;5029156;28;20204;-70
2021/11/05 11:18:26;;;;;;;15.60;8.43;;;10.50;99.90;;;;;;5029495;28;20204;-70
2021/11/05 11:20:52;;;;;;;18.47;7.90;;;10.50;99.90;;;;;;5029328;28;20274;-70
2021/11/05 11:23:21;;;;;;;13.60;7.30;;;10.50;99.90;;;;;;5029256;28;20291;-70
2021/11/05 11:25:48;;;;;;;12.83;6.63;;;10.50;99.90;;;;;;5028699;28;20585;-70
2021/11/05 11:28:16;;;;;;;12.10;6.90;;;10.40;99.90;;;;;;5029421;28;20212;-70
2021/11/05 11:30:43;;;;;;;16.07;7.73;;;10.40;99.90;;;;;;5029046;28;20222;-70
2021/11/05 11:33:10;;;;;;;11.67;6.70;;;10.30;99.90;;;;;;5029416;28;20203;-71
2021/11/05 11:35:40;;;;;;;14.83;7.97;;;10.40;99.90;;;;;;5072436;28;20200;-70
2021/11/05 11:38:08;;;;;;;11.70;6.50;;;10.50;99.90;;;;;;5027744;28;20537;-71
2021/11/05 11:40:36;;;;;;;13.00;7.20;;;10.40;99.90;;;;;;5027458;28;20559;-71
2021/11/05 11:43:03;;;;;;;12.40;6.73;;;10.60;99.90;;;;;;5029365;28;20571;-71
2021/11/05 11:45:30;;;;;;;13.70;6.20;;;10.70;99.90;;;;;;5028961;28;20234;-70
2021/11/05 11:47:59;;;;;;;11.73;5.90;;;10.80;99.90;;;;;;5028956;28;20544;-71
2021/11/05 11:50:29;;;;;;;11.00;6.00;;;10.80;99.90;;;;;;5027788;28;20208;-71
2021/11/05 11:52:59;;;;;;;14.10;7.00;;;10.90;99.90;;;;;;5028069;28;20200;-71
2021/11/05 11:55:26;;;;;;;10.93;6.37;;;10.80;99.90;;;;;;5028211;28;20204;-71
2021/11/05 11:58:12;;;;;;;10.70;5.57;;;11.70;99.90;;;;;;5028343;28;20537;-71
2021/11/05 12:00:40;;;;;;;11.00;5.23;;;12.20;99.90;;;;;;5028266;28;20200;-71
2021/11/05 12:03:11;;;;;;;9.60;6.10;;;12.10;99.90;;;;;;5027812;28;20298;-71
2021/11/05 12:05:43;;;;;;;10.13;5.67;;;12.60;99.90;;;;;;5027614;28;20216;-71
2021/11/05 12:08:22;;;;;;;10.37;5.30;;;12.20;99.90;;;;;;5008957;28;20211;-71
2021/11/05 12:10:53;;;;;;;9.80;5.90;;;11.60;99.90;;;;;;5008345;28;20290;-71
2021/11/05 12:13:47;;;;;;;8.60;5.20;;;11.40;99.90;;;;;;5028050;28;20299;-71
2021/11/05 12:16:26;;;;;;;11.30;5.83;;;11.10;99.90;;;;;;5031948;28;20290;-71
2021/11/05 12:19:12;;;;;;;12.13;5.57;;;12.10;99.90;;;;;;5035750;28;20547;-71
2021/11/05 12:21:42;;;;;;;10.20;5.93;;;12.80;99.90;;;;;;5031333;28;20206;-71
2021/11/05 12:24:27;;;;;;;10.47;5.57;;;12.30;99.90;;;;;;5032047;28;20577;-71
2021/11/05 12:26:57;;;;;;;10.30;5.60;;;11.50;99.90;;;;;;5031794;28;20211;-71
2021/11/05 12:29:57;;;;;;;12.27;5.90;;;11.20;99.90;;;;;;5031567;28;20188;-71
2021/11/05 12:32:28;;;;;;;8.77;5.40;;;11.00;99.90;;;;;;5032094;28;20218;-71
2021/11/05 12:35:14;;;;;;;14.30;6.03;;;11.30;99.90;;;;;;5032162;28;20204;-71
2021/11/05 12:37:43;;;;;;;10.23;5.47;;;11.20;99.90;;;;;;5011916;28;20239;-71
2021/11/05 12:40:27;;;;;;;9.57;5.33;;;11.00;99.90;;;;;;5017530;28;20272;-71
2021/11/05 12:42:56;;;;;;;10.00;5.40;;;11.00;99.90;;;;;;5027529;28;20200;-71
2021/11/05 12:45:44;;;;;;;10.43;5.23;;;10.80;99.90;;;;;;5053654;27;20785;-70